sensor_id;sensor_type;location;lat;lon;timestamp;P1;durP1;ratioP1;P2;durP2;ratioP2
51883;SDS011;37915;53.254;6.598;2023-04-01T00:02:18;9.27;;;5.85;;
51883;SDS011;37915;53.254;6.598;2023-04-01T00:04:44;9.23;;;5.72;;
51883;SDS011;37915;53.254;6.598;2023-04-01T00:07:10;9.02;;;5.97;;
51883;SDS011;37915;53.254;6.598;2023-04-01T00:09:36;7.90;;;5.35;;
51883;SDS011;37915;53.254;6.598;2023-04-01T00:12:02;9.82;;;6.00;;
51883;SDS011;37915;53.254;6.598;2023-04-01T00:14:28;9.70;;;5.15;;
51883;SDS011;37915;53.254;6.598;2023-04-01T00:16:54;7.45;;;4.97;;
51883;SDS011;37915;53.254;6.598;2023-04-01T00:19:20;9.68;;;5.75;;
51883;SDS011;37915;53.254;6.598;2023-04-01T00:21:46;12.20;;;5.50;;
51883;SDS011;37915;53.254;6.598;2023-04-01T00:24:13;7.45;;;4.75;;
51883;SDS011;37915;53.254;6.598;2023-04-01T00:26:39;12.18;;;5.95;;
51883;SDS011;37915;53.254;6.598;2023-04-01T00:29:07;11.48;;;5.82;;
51883;SDS011;37915;53.254;6.598;2023-04-01T00:31:33;10.52;;;5.28;;
51883;SDS011;37915;53.254;6.598;2023-04-01T00:33:59;8.57;;;4.85;;
51883;SDS011;37915;53.254;6.598;2023-04-01T00:36:25;8.02;;;5.40;;
51883;SDS011;37915;53.254;6.598;2023-04-01T00:38:50;9.45;;;5.47;;
51883;SDS011;37915;53.254;6.598;2023-04-01T00:41:17;10.10;;;5.70;;
51883;SDS011;37915;53.254;6.598;2023-04-01T00:43:47;10.15;;;5.30;;
51883;SDS011;37915;53.254;6.598;2023-04-01T00:46:14;11.90;;;6.25;;
51883;SDS011;37915;53.254;6.598;2023-04-01T00:48:44;8.93;;;5.50;;
51883;SDS011;37915;53.254;6.598;2023-04-01T00:51:26;10.55;;;5.43;;
51883;SDS011;37915;53.254;6.598;2023-04-01T00:53:55;8.15;;;5.47;;
51883;SDS011;37915;53.254;6.598;2023-04-01T00:56:27;7.72;;;5.32;;
51883;SDS011;37915;53.254;6.598;2023-04-01T00:59:19;8.80;;;5.47;;
51883;SDS011;37915;53.254;6.598;2023-04-01T01:01:51;10.35;;;5.30;;
51883;SDS011;37915;53.254;6.598;2023-04-01T01:04:21;10.25;;;5.18;;
51883;SDS011;37915;53.254;6.598;2023-04-01T01:15:32;11.07;;;5.65;;
51883;SDS011;37915;53.254;6.598;2023-04-01T01:18:09;8.13;;;5.93;;
51883;SDS011;37915;53.254;6.598;2023-04-01T01:26:56;13.75;;;6.72;;
51883;SDS011;37915;53.254;6.598;2023-04-01T01:35:31;10.10;;;6.30;;
51883;SDS011;37915;53.254;6.598;2023-04-01T01:38:12;10.30;;;6.65;;
51883;SDS011;37915;53.254;6.598;2023-04-01T01:40:42;10.07;;;6.32;;
51883;SDS011;37915;53.254;6.598;2023-04-01T01:43:11;10.18;;;6.60;;
51883;SDS011;37915;53.254;6.598;2023-04-01T01:45:44;11.68;;;6.50;;
51883;SDS011;37915;53.254;6.598;2023-04-01T01:48:12;9.82;;;6.57;;
51883;SDS011;37915;53.254;6.598;2023-04-01T01:50:40;14.48;;;6.68;;
51883;SDS011;37915;53.254;6.598;2023-04-01T01:53:09;11.70;;;6.75;;
51883;SDS011;37915;53.254;6.598;2023-04-01T01:55:37;15.85;;;7.47;;
51883;SDS011;37915;53.254;6.598;2023-04-01T01:58:19;11.02;;;6.95;;
51883;SDS011;37915;53.254;6.598;2023-04-01T02:01:06;10.88;;;6.70;;
51883;SDS011;37915;53.254;6.598;2023-04-01T02:03:35;11.65;;;6.93;;
51883;SDS011;37915;53.254;6.598;2023-04-01T02:06:03;10.98;;;7.10;;
51883;SDS011;37915;53.254;6.598;2023-04-01T02:08:35;10.55;;;6.65;;
51883;SDS011;37915;53.254;6.598;2023-04-01T02:11:17;10.65;;;6.63;;
51883;SDS011;37915;53.254;6.598;2023-04-01T02:16:28;10.40;;;6.88;;
51883;SDS011;37915;53.254;6.598;2023-04-01T02:19:00;11.60;;;7.00;;
51883;SDS011;37915;53.254;6.598;2023-04-01T02:21:32;12.43;;;7.38;;
51883;SDS011;37915;53.254;6.598;2023-04-01T02:24:00;16.02;;;8.43;;
51883;SDS011;37915;53.254;6.598;2023-04-01T02:26:29;12.93;;;7.47;;
51883;SDS011;37915;53.254;6.598;2023-04-01T02:28:55;11.52;;;7.45;;
51883;SDS011;37915;53.254;6.598;2023-04-01T02:31:24;14.20;;;7.88;;
51883;SDS011;37915;53.254;6.598;2023-04-01T02:33:50;12.52;;;7.53;;
51883;SDS011;37915;53.254;6.598;2023-04-01T02:36:17;12.85;;;7.05;;
51883;SDS011;37915;53.254;6.598;2023-04-01T02:38:43;11.30;;;7.30;;
51883;SDS011;37915;53.254;6.598;2023-04-01T02:41:10;11.98;;;7.20;;
51883;SDS011;37915;53.254;6.598;2023-04-01T02:43:36;9.70;;;6.78;;
51883;SDS011;37915;53.254;6.598;2023-04-01T02:46:02;11.02;;;7.13;;
51883;SDS011;37915;53.254;6.598;2023-04-01T02:48:28;14.93;;;7.93;;
51883;SDS011;37915;53.254;6.598;2023-04-01T02:50:54;12.27;;;7.40;;
51883;SDS011;37915;53.254;6.598;2023-04-01T02:53:21;13.68;;;8.05;;
51883;SDS011;37915;53.254;6.598;2023-04-01T02:55:47;14.73;;;7.80;;
51883;SDS011;37915;53.254;6.598;2023-04-01T02:58:15;14.23;;;7.68;;
51883;SDS011;37915;53.254;6.598;2023-04-01T03:00:41;16.38;;;8.60;;
51883;SDS011;37915;53.254;6.598;2023-04-01T03:03:07;17.35;;;9.50;;
51883;SDS011;37915;53.254;6.598;2023-04-01T03:05:33;17.13;;;9.07;;
51883;SDS011;37915;53.254;6.598;2023-04-01T03:07:59;15.43;;;8.85;;
51883;SDS011;37915;53.254;6.598;2023-04-01T03:10:24;15.13;;;9.35;;
51883;SDS011;37915;53.254;6.598;2023-04-01T03:12:50;19.92;;;9.60;;
51883;SDS011;37915;53.254;6.598;2023-04-01T03:15:16;15.75;;;10.63;;
51883;SDS011;37915;53.254;6.598;2023-04-01T03:17:42;17.30;;;10.43;;
51883;SDS011;37915;53.254;6.598;2023-04-01T03:20:08;15.73;;;9.70;;
51883;SDS011;37915;53.254;6.598;2023-04-01T03:22:35;15.63;;;10.77;;
51883;SDS011;37915;53.254;6.598;2023-04-01T03:25:02;14.25;;;9.65;;
51883;SDS011;37915;53.254;6.598;2023-04-01T03:27:29;18.77;;;10.27;;
51883;SDS011;37915;53.254;6.598;2023-04-01T03:29:55;20.15;;;10.05;;
51883;SDS011;37915;53.254;6.598;2023-04-01T03:32:20;20.35;;;9.95;;
51883;SDS011;37915;53.254;6.598;2023-04-01T03:34:46;19.77;;;10.75;;
51883;SDS011;37915;53.254;6.598;2023-04-01T03:37:12;16.00;;;10.20;;
51883;SDS011;37915;53.254;6.598;2023-04-01T03:39:37;18.00;;;9.15;;
51883;SDS011;37915;53.254;6.598;2023-04-01T03:42:03;16.83;;;10.93;;
51883;SDS011;37915;53.254;6.598;2023-04-01T03:44:35;14.50;;;9.95;;
51883;SDS011;37915;53.254;6.598;2023-04-01T03:47:01;16.10;;;9.80;;
51883;SDS011;37915;53.254;6.598;2023-04-01T03:49:26;16.25;;;9.50;;
51883;SDS011;37915;53.254;6.598;2023-04-01T03:51:53;19.38;;;10.02;;
51883;SDS011;37915;53.254;6.598;2023-04-01T03:54:19;18.05;;;9.85;;
51883;SDS011;37915;53.254;6.598;2023-04-01T03:56:45;19.00;;;10.30;;
51883;SDS011;37915;53.254;6.598;2023-04-01T03:59:11;19.02;;;9.88;;
51883;SDS011;37915;53.254;6.598;2023-04-01T04:01:37;14.88;;;9.93;;
51883;SDS011;37915;53.254;6.598;2023-04-01T04:04:03;19.25;;;10.68;;
51883;SDS011;37915;53.254;6.598;2023-04-01T04:06:29;21.65;;;10.07;;
51883;SDS011;37915;53.254;6.598;2023-04-01T04:08:55;18.55;;;10.07;;
51883;SDS011;37915;53.254;6.598;2023-04-01T04:11:21;23.05;;;10.73;;
51883;SDS011;37915;53.254;6.598;2023-04-01T04:13:47;21.13;;;10.27;;
51883;SDS011;37915;53.254;6.598;2023-04-01T04:16:15;20.05;;;10.60;;
51883;SDS011;37915;53.254;6.598;2023-04-01T04:18:42;17.95;;;10.80;;
51883;SDS011;37915;53.254;6.598;2023-04-01T04:21:11;16.60;;;10.50;;
51883;SDS011;37915;53.254;6.598;2023-04-01T04:23:38;17.10;;;9.70;;
51883;SDS011;37915;53.254;6.598;2023-04-01T04:26:08;17.42;;;9.90;;
51883;SDS011;37915;53.254;6.598;2023-04-01T04:28:36;17.65;;;10.50;;
51883;SDS011;37915;53.254;6.598;2023-04-01T04:31:02;18.10;;;10.00;;
51883;SDS011;37915;53.254;6.598;2023-04-01T04:33:30;17.13;;;9.68;;
51883;SDS011;37915;53.254;6.598;2023-04-01T04:35:56;19.17;;;10.55;;
51883;SDS011;37915;53.254;6.598;2023-04-01T04:38:23;19.35;;;10.80;;
51883;SDS011;37915;53.254;6.598;2023-04-01T04:40:49;20.25;;;10.80;;
51883;SDS011;37915;53.254;6.598;2023-04-01T04:43:15;18.75;;;11.15;;
51883;SDS011;37915;53.254;6.598;2023-04-01T04:45:41;20.73;;;12.07;;
51883;SDS011;37915;53.254;6.598;2023-04-01T04:48:08;21.85;;;11.68;;
51883;SDS011;37915;53.254;6.598;2023-04-01T04:50:34;18.48;;;11.65;;
51883;SDS011;37915;53.254;6.598;2023-04-01T04:53:00;20.27;;;12.10;;
51883;SDS011;37915;53.254;6.598;2023-04-01T04:55:26;21.00;;;11.35;;
51883;SDS011;37915;53.254;6.598;2023-04-01T04:57:52;23.15;;;12.07;;
51883;SDS011;37915;53.254;6.598;2023-04-01T05:00:18;25.65;;;12.55;;
51883;SDS011;37915;53.254;6.598;2023-04-01T05:02:44;23.08;;;12.40;;
51883;SDS011;37915;53.254;6.598;2023-04-01T05:05:09;24.63;;;14.07;;
51883;SDS011;37915;53.254;6.598;2023-04-01T05:07:35;25.65;;;13.02;;
51883;SDS011;37915;53.254;6.598;2023-04-01T05:10:01;26.83;;;13.00;;
51883;SDS011;37915;53.254;6.598;2023-04-01T05:12:27;25.95;;;13.70;;
51883;SDS011;37915;53.254;6.598;2023-04-01T05:14:53;26.42;;;13.65;;
51883;SDS011;37915;53.254;6.598;2023-04-01T05:17:19;25.58;;;12.98;;
51883;SDS011;37915;53.254;6.598;2023-04-01T05:19:45;22.02;;;13.18;;
51883;SDS011;37915;53.254;6.598;2023-04-01T05:22:11;26.17;;;14.15;;
51883;SDS011;37915;53.254;6.598;2023-04-01T05:24:37;24.60;;;13.48;;
51883;SDS011;37915;53.254;6.598;2023-04-01T05:27:02;23.75;;;15.05;;
51883;SDS011;37915;53.254;6.598;2023-04-01T05:29:28;26.45;;;14.05;;
51883;SDS011;37915;53.254;6.598;2023-04-01T05:31:54;25.48;;;13.48;;
51883;SDS011;37915;53.254;6.598;2023-04-01T05:34:19;21.58;;;13.15;;
51883;SDS011;37915;53.254;6.598;2023-04-01T05:36:45;25.60;;;12.77;;
51883;SDS011;37915;53.254;6.598;2023-04-01T05:39:11;21.70;;;12.45;;
51883;SDS011;37915;53.254;6.598;2023-04-01T05:41:37;20.13;;;12.20;;
51883;SDS011;37915;53.254;6.598;2023-04-01T05:44:04;19.38;;;12.13;;
51883;SDS011;37915;53.254;6.598;2023-04-01T05:46:30;22.15;;;12.50;;
51883;SDS011;37915;53.254;6.598;2023-04-01T05:48:56;20.35;;;11.75;;
51883;SDS011;37915;53.254;6.598;2023-04-01T05:51:22;20.10;;;11.48;;
51883;SDS011;37915;53.254;6.598;2023-04-01T05:53:48;18.73;;;11.60;;
51883;SDS011;37915;53.254;6.598;2023-04-01T05:56:14;18.98;;;10.98;;
51883;SDS011;37915;53.254;6.598;2023-04-01T05:58:40;17.73;;;10.13;;
51883;SDS011;37915;53.254;6.598;2023-04-01T06:01:07;19.33;;;10.85;;
51883;SDS011;37915;53.254;6.598;2023-04-01T06:03:35;20.23;;;10.60;;
51883;SDS011;37915;53.254;6.598;2023-04-01T06:06:01;19.38;;;11.32;;
51883;SDS011;37915;53.254;6.598;2023-04-01T06:08:27;21.05;;;11.35;;
51883;SDS011;37915;53.254;6.598;2023-04-01T06:17:12;18.73;;;11.48;;
51883;SDS011;37915;53.254;6.598;2023-04-01T06:19:59;21.38;;;12.40;;
51883;SDS011;37915;53.254;6.598;2023-04-01T06:23:14;25.60;;;13.43;;
51883;SDS011;37915;53.254;6.598;2023-04-01T06:37:27;24.92;;;15.13;;
51883;SDS011;37915;53.254;6.598;2023-04-01T06:40:35;24.75;;;13.85;;
51883;SDS011;37915;53.254;6.598;2023-04-01T06:43:16;24.45;;;14.60;;
51883;SDS011;37915;53.254;6.598;2023-04-01T06:48:34;24.17;;;14.82;;
51883;SDS011;37915;53.254;6.598;2023-04-01T06:51:25;24.15;;;13.98;;
51883;SDS011;37915;53.254;6.598;2023-04-01T06:56:53;25.77;;;14.43;;
51883;SDS011;37915;53.254;6.598;2023-04-01T06:59:25;24.05;;;14.15;;
51883;SDS011;37915;53.254;6.598;2023-04-01T07:02:00;26.13;;;14.35;;
51883;SDS011;37915;53.254;6.598;2023-04-01T07:04:37;25.20;;;13.80;;
51883;SDS011;37915;53.254;6.598;2023-04-01T07:10:02;26.00;;;15.02;;
51883;SDS011;37915;53.254;6.598;2023-04-01T07:14:55;24.45;;;15.60;;
51883;SDS011;37915;53.254;6.598;2023-04-01T07:17:27;24.58;;;15.05;;
51883;SDS011;37915;53.254;6.598;2023-04-01T07:20:10;27.52;;;16.35;;
51883;SDS011;37915;53.254;6.598;2023-04-01T07:22:48;28.40;;;16.30;;
51883;SDS011;37915;53.254;6.598;2023-04-01T07:25:20;24.85;;;15.50;;
51883;SDS011;37915;53.254;6.598;2023-04-01T07:27:50;28.10;;;15.73;;
51883;SDS011;37915;53.254;6.598;2023-04-01T07:30:24;26.17;;;15.80;;
51883;SDS011;37915;53.254;6.598;2023-04-01T07:35:38;25.60;;;16.52;;
51883;SDS011;37915;53.254;6.598;2023-04-01T07:41:23;25.75;;;15.20;;
51883;SDS011;37915;53.254;6.598;2023-04-01T07:44:06;26.00;;;15.65;;
51883;SDS011;37915;53.254;6.598;2023-04-01T07:52:35;21.75;;;13.75;;
51883;SDS011;37915;53.254;6.598;2023-04-01T07:55:13;21.58;;;12.40;;
51883;SDS011;37915;53.254;6.598;2023-04-01T07:57:47;19.58;;;13.13;;
51883;SDS011;37915;53.254;6.598;2023-04-01T08:00:30;21.98;;;13.80;;
51883;SDS011;37915;53.254;6.598;2023-04-01T08:03:15;19.52;;;12.20;;
51883;SDS011;37915;53.254;6.598;2023-04-01T08:05:55;19.80;;;12.60;;
51883;SDS011;37915;53.254;6.598;2023-04-01T08:08:51;17.90;;;11.73;;
51883;SDS011;37915;53.254;6.598;2023-04-01T08:11:52;18.98;;;11.73;;
51883;SDS011;37915;53.254;6.598;2023-04-01T08:17:04;17.75;;;12.50;;
51883;SDS011;37915;53.254;6.598;2023-04-01T08:19:54;20.35;;;13.00;;
51883;SDS011;37915;53.254;6.598;2023-04-01T08:22:55;20.83;;;12.73;;
51883;SDS011;37915;53.254;6.598;2023-04-01T08:25:27;19.50;;;12.82;;
51883;SDS011;37915;53.254;6.598;2023-04-01T08:28:17;20.42;;;12.93;;
51883;SDS011;37915;53.254;6.598;2023-04-01T08:33:27;20.70;;;13.37;;
51883;SDS011;37915;53.254;6.598;2023-04-01T08:38:43;18.50;;;10.70;;
51883;SDS011;37915;53.254;6.598;2023-04-01T08:41:33;9.80;;;6.70;;
51883;SDS011;37915;53.254;6.598;2023-04-01T08:58:01;6.70;;;4.30;;
51883;SDS011;37915;53.254;6.598;2023-04-01T09:20:19;5.07;;;2.90;;
51883;SDS011;37915;53.254;6.598;2023-04-01T09:46:43;4.60;;;2.35;;
51883;SDS011;37915;53.254;6.598;2023-04-01T10:08:28;5.22;;;2.17;;
51883;SDS011;37915;53.254;6.598;2023-04-01T10:25:23;4.15;;;2.22;;
51883;SDS011;37915;53.254;6.598;2023-04-01T10:28:12;6.10;;;2.25;;
51883;SDS011;37915;53.254;6.598;2023-04-01T10:34:03;3.78;;;1.85;;
51883;SDS011;37915;53.254;6.598;2023-04-01T10:36:54;4.38;;;1.92;;
51883;SDS011;37915;53.254;6.598;2023-04-01T11:01:55;4.63;;;2.10;;
51883;SDS011;37915;53.254;6.598;2023-04-01T11:07:46;5.10;;;2.30;;
51883;SDS011;37915;53.254;6.598;2023-04-01T11:26:50;3.75;;;1.95;;
51883;SDS011;37915;53.254;6.598;2023-04-01T11:29:46;4.75;;;2.28;;
51883;SDS011;37915;53.254;6.598;2023-04-01T11:32:43;5.07;;;2.00;;
51883;SDS011;37915;53.254;6.598;2023-04-01T11:35:39;2.88;;;1.75;;
51883;SDS011;37915;53.254;6.598;2023-04-01T11:44:22;5.17;;;2.33;;
51883;SDS011;37915;53.254;6.598;2023-04-01T12:03:18;3.13;;;1.70;;
51883;SDS011;37915;53.254;6.598;2023-04-01T12:17:41;3.78;;;1.70;;
51883;SDS011;37915;53.254;6.598;2023-04-01T12:20:33;4.35;;;1.60;;
51883;SDS011;37915;53.254;6.598;2023-04-01T12:29:22;4.85;;;1.80;;
51883;SDS011;37915;53.254;6.598;2023-04-01T12:45:36;3.28;;;1.70;;
51883;SDS011;37915;53.254;6.598;2023-04-01T12:48:14;4.20;;;1.98;;
51883;SDS011;37915;53.254;6.598;2023-04-01T12:53:26;5.07;;;1.98;;
51883;SDS011;37915;53.254;6.598;2023-04-01T13:08:10;4.13;;;1.55;;
51883;SDS011;37915;53.254;6.598;2023-04-01T13:13:59;3.13;;;1.63;;
51883;SDS011;37915;53.254;6.598;2023-04-01T13:16:48;3.95;;;1.80;;
51883;SDS011;37915;53.254;6.598;2023-04-01T13:25:00;4.82;;;1.77;;
51883;SDS011;37915;53.254;6.598;2023-04-01T13:28:39;4.70;;;1.77;;
51883;SDS011;37915;53.254;6.598;2023-04-01T13:31:09;2.73;;;1.30;;
51883;SDS011;37915;53.254;6.598;2023-04-01T13:39:48;2.63;;;1.30;;
51883;SDS011;37915;53.254;6.598;2023-04-01T13:42:31;7.95;;;2.05;;
51883;SDS011;37915;53.254;6.598;2023-04-01T13:59:27;2.85;;;1.45;;
51883;SDS011;37915;53.254;6.598;2023-04-01T14:04:53;3.45;;;1.27;;
51883;SDS011;37915;53.254;6.598;2023-04-01T14:10:19;2.35;;;1.20;;
51883;SDS011;37915;53.254;6.598;2023-04-01T14:27:47;4.28;;;1.38;;
51883;SDS011;37915;53.254;6.598;2023-04-01T14:33:12;2.97;;;1.70;;
51883;SDS011;37915;53.254;6.598;2023-04-01T14:41:42;3.58;;;1.77;;
51883;SDS011;37915;53.254;6.598;2023-04-01T14:49:44;2.97;;;1.60;;
51883;SDS011;37915;53.254;6.598;2023-04-01T14:52:17;2.97;;;1.65;;
51883;SDS011;37915;53.254;6.598;2023-04-01T14:54:47;3.72;;;1.70;;
51883;SDS011;37915;53.254;6.598;2023-04-01T14:57:16;3.67;;;2.08;;
51883;SDS011;37915;53.254;6.598;2023-04-01T15:00:19;4.15;;;1.70;;
51883;SDS011;37915;53.254;6.598;2023-04-01T15:08:01;4.95;;;2.10;;
51883;SDS011;37915;53.254;6.598;2023-04-01T15:35:19;5.65;;;2.80;;
51883;SDS011;37915;53.254;6.598;2023-04-01T15:37:55;5.93;;;2.72;;
51883;SDS011;37915;53.254;6.598;2023-04-01T15:40:32;4.47;;;2.63;;
51883;SDS011;37915;53.254;6.598;2023-04-01T16:08:05;6.13;;;3.40;;
51883;SDS011;37915;53.254;6.598;2023-04-01T16:16:53;5.90;;;3.22;;
51883;SDS011;37915;53.254;6.598;2023-04-01T16:22:48;9.80;;;3.97;;
51883;SDS011;37915;53.254;6.598;2023-04-01T16:25:40;11.87;;;4.53;;
51883;SDS011;37915;53.254;6.598;2023-04-01T16:28:55;6.43;;;3.72;;
51883;SDS011;37915;53.254;6.598;2023-04-01T16:31:42;7.38;;;3.75;;
51883;SDS011;37915;53.254;6.598;2023-04-01T16:37:07;8.75;;;4.10;;
51883;SDS011;37915;53.254;6.598;2023-04-01T16:39:43;9.88;;;4.70;;
51883;SDS011;37915;53.254;6.598;2023-04-01T16:42:40;12.30;;;5.13;;
51883;SDS011;37915;53.254;6.598;2023-04-01T16:45:24;11.40;;;5.05;;
51883;SDS011;37915;53.254;6.598;2023-04-01T16:48:00;7.10;;;3.90;;
51883;SDS011;37915;53.254;6.598;2023-04-01T16:50:48;10.50;;;3.97;;
51883;SDS011;37915;53.254;6.598;2023-04-01T16:53:25;8.43;;;4.32;;
51883;SDS011;37915;53.254;6.598;2023-04-01T16:56:16;10.38;;;4.78;;
51883;SDS011;37915;53.254;6.598;2023-04-01T16:59:02;11.20;;;4.72;;
51883;SDS011;37915;53.254;6.598;2023-04-01T17:06:57;8.85;;;4.95;;
51883;SDS011;37915;53.254;6.598;2023-04-01T17:12:34;7.85;;;4.32;;
51883;SDS011;37915;53.254;6.598;2023-04-01T17:17:45;7.15;;;4.15;;
51883;SDS011;37915;53.254;6.598;2023-04-01T17:20:18;6.72;;;4.22;;
51883;SDS011;37915;53.254;6.598;2023-04-01T17:27:51;8.73;;;4.45;;
51883;SDS011;37915;53.254;6.598;2023-04-01T17:46:50;10.15;;;4.28;;
51883;SDS011;37915;53.254;6.598;2023-04-01T18:00:17;8.65;;;4.82;;
51883;SDS011;37915;53.254;6.598;2023-04-01T18:06:14;10.60;;;4.55;;
51883;SDS011;37915;53.254;6.598;2023-04-01T18:14:22;9.82;;;4.38;;
51883;SDS011;37915;53.254;6.598;2023-04-01T18:22:53;8.63;;;4.95;;
51883;SDS011;37915;53.254;6.598;2023-04-01T18:25:44;12.82;;;4.90;;
51883;SDS011;37915;53.254;6.598;2023-04-01T18:31:04;10.02;;;5.20;;
51883;SDS011;37915;53.254;6.598;2023-04-01T18:33:42;8.18;;;5.13;;
51883;SDS011;37915;53.254;6.598;2023-04-01T18:36:26;12.73;;;4.80;;
51883;SDS011;37915;53.254;6.598;2023-04-01T18:39:03;11.25;;;5.00;;
51883;SDS011;37915;53.254;6.598;2023-04-01T18:41:38;10.32;;;5.20;;
51883;SDS011;37915;53.254;6.598;2023-04-01T18:47:05;8.60;;;4.72;;
51883;SDS011;37915;53.254;6.598;2023-04-01T18:49:43;9.63;;;5.07;;
51883;SDS011;37915;53.254;6.598;2023-04-01T18:52:36;10.52;;;4.68;;
51883;SDS011;37915;53.254;6.598;2023-04-01T18:58:14;10.73;;;5.40;;
51883;SDS011;37915;53.254;6.598;2023-04-01T19:03:48;17.30;;;5.13;;
51883;SDS011;37915;53.254;6.598;2023-04-01T19:22:19;10.20;;;4.63;;
51883;SDS011;37915;53.254;6.598;2023-04-01T19:27:52;11.52;;;4.80;;
51883;SDS011;37915;53.254;6.598;2023-04-01T19:36:07;12.20;;;4.80;;
51883;SDS011;37915;53.254;6.598;2023-04-01T19:38:53;13.35;;;5.35;;
51883;SDS011;37915;53.254;6.598;2023-04-01T19:41:34;10.07;;;4.82;;
51883;SDS011;37915;53.254;6.598;2023-04-01T19:45:00;10.68;;;4.40;;
51883;SDS011;37915;53.254;6.598;2023-04-01T19:50:37;9.23;;;4.75;;
51883;SDS011;37915;53.254;6.598;2023-04-01T19:53:18;8.10;;;4.80;;
51883;SDS011;37915;53.254;6.598;2023-04-01T19:56:16;10.75;;;4.07;;
51883;SDS011;37915;53.254;6.598;2023-04-01T19:58:54;9.20;;;4.63;;
51883;SDS011;37915;53.254;6.598;2023-04-01T20:01:45;10.07;;;4.28;;
51883;SDS011;37915;53.254;6.598;2023-04-01T20:04:53;9.35;;;4.68;;
51883;SDS011;37915;53.254;6.598;2023-04-01T20:07:26;12.82;;;4.25;;
51883;SDS011;37915;53.254;6.598;2023-04-01T20:10:13;9.32;;;3.42;;
51883;SDS011;37915;53.254;6.598;2023-04-01T20:12:46;9.02;;;4.28;;
51883;SDS011;37915;53.254;6.598;2023-04-01T20:17:58;11.07;;;4.18;;
51883;SDS011;37915;53.254;6.598;2023-04-01T20:20:28;10.30;;;4.22;;
51883;SDS011;37915;53.254;6.598;2023-04-01T20:25:33;9.00;;;4.68;;
51883;SDS011;37915;53.254;6.598;2023-04-01T20:28:12;7.18;;;4.18;;
51883;SDS011;37915;53.254;6.598;2023-04-01T20:36:26;7.10;;;3.83;;
51883;SDS011;37915;53.254;6.598;2023-04-01T20:39:10;9.10;;;4.00;;
51883;SDS011;37915;53.254;6.598;2023-04-01T20:53:29;8.93;;;3.55;;
51883;SDS011;37915;53.254;6.598;2023-04-01T21:07:20;15.18;;;4.78;;
51883;SDS011;37915;53.254;6.598;2023-04-01T21:12:52;7.18;;;3.95;;
51883;SDS011;37915;53.254;6.598;2023-04-01T21:15:48;8.80;;;3.30;;
51883;SDS011;37915;53.254;6.598;2023-04-01T21:23:42;7.93;;;3.42;;
51883;SDS011;37915;53.254;6.598;2023-04-01T21:26:28;7.22;;;3.28;;
51883;SDS011;37915;53.254;6.598;2023-04-01T21:32:19;6.13;;;3.38;;
51883;SDS011;37915;53.254;6.598;2023-04-01T21:38:09;7.95;;;3.78;;
51883;SDS011;37915;53.254;6.598;2023-04-01T21:45:54;7.63;;;3.30;;
51883;SDS011;37915;53.254;6.598;2023-04-01T21:54:26;9.25;;;3.80;;
51883;SDS011;37915;53.254;6.598;2023-04-01T22:08:54;9.40;;;4.03;;
51883;SDS011;37915;53.254;6.598;2023-04-01T22:14:31;9.27;;;4.78;;
51883;SDS011;37915;53.254;6.598;2023-04-01T22:25:04;9.93;;;3.60;;
51883;SDS011;37915;53.254;6.598;2023-04-01T22:40:37;6.80;;;3.00;;
51883;SDS011;37915;53.254;6.598;2023-04-01T22:43:13;6.97;;;2.72;;
51883;SDS011;37915;53.254;6.598;2023-04-01T22:46:03;10.82;;;3.40;;
51883;SDS011;37915;53.254;6.598;2023-04-01T22:51:39;9.90;;;2.92;;
51883;SDS011;37915;53.254;6.598;2023-04-01T22:59:27;8.07;;;3.33;;
51883;SDS011;37915;53.254;6.598;2023-04-01T23:02:14;10.52;;;2.78;;
51883;SDS011;37915;53.254;6.598;2023-04-01T23:04:54;6.82;;;3.00;;
51883;SDS011;37915;53.254;6.598;2023-04-01T23:13:10;6.57;;;2.67;;
51883;SDS011;37915;53.254;6.598;2023-04-01T23:15:41;5.28;;;2.35;;
51883;SDS011;37915;53.254;6.598;2023-04-01T23:18:12;6.35;;;3.45;;
51883;SDS011;37915;53.254;6.598;2023-04-01T23:26:52;7.47;;;2.88;;
51883;SDS011;37915;53.254;6.598;2023-04-01T23:29:25;5.40;;;2.25;;
51883;SDS011;37915;53.254;6.598;2023-04-01T23:34:31;6.43;;;2.88;;
51883;SDS011;37915;53.254;6.598;2023-04-01T23:37:18;8.52;;;3.25;;
51883;SDS011;37915;53.254;6.598;2023-04-01T23:39:53;9.13;;;4.20;;
51883;SDS011;37915;53.254;6.598;2023-04-01T23:42:23;8.50;;;2.65;;
51883;SDS011;37915;53.254;6.598;2023-04-01T23:45:15;11.48;;;3.03;;
51883;SDS011;37915;53.254;6.598;2023-04-01T23:47:45;7.97;;;2.75;;
51883;SDS011;37915;53.254;6.598;2023-04-01T23:50:16;7.90;;;2.50;;
51883;SDS011;37915;53.254;6.598;2023-04-01T23:52:51;6.38;;;2.95;;
51883;SDS011;37915;53.254;6.598;2023-04-01T23:55:29;14.20;;;3.33;;
